sensor_id;sensor_type;location;lat;lon;timestamp;P1;durP1;ratioP1;P2;durP2;ratioP2
828;SDS011;396;52.558;13.188;2023-08-31T00:01:06;3.50;;;1.57;;
828;SDS011;396;52.558;13.188;2023-08-31T00:03:34;3.23;;;1.60;;
828;SDS011;396;52.558;13.188;2023-08-31T00:06:01;2.43;;;1.03;;
828;SDS011;396;52.558;13.188;2023-08-31T00:08:29;3.30;;;1.50;;
828;SDS011;396;52.558;13.188;2023-08-31T00:10:56;2.50;;;1.20;;
828;SDS011;396;52.558;13.188;2023-08-31T00:13:23;2.80;;;1.33;;
828;SDS011;396;52.558;13.188;2023-08-31T00:15:54;2.40;;;0.93;;
828;SDS011;396;52.558;13.188;2023-08-31T00:18:21;2.53;;;1.17;;
828;SDS011;396;52.558;13.188;2023-08-31T00:20:49;2.77;;;1.30;;
828;SDS011;396;52.558;13.188;2023-08-31T00:23:16;3.13;;;1.57;;
828;SDS011;396;52.558;13.188;2023-08-31T00:25:42;3.33;;;1.40;;
828;SDS011;396;52.558;13.188;2023-08-31T00:28:09;3.03;;;1.30;;
828;SDS011;396;52.558;13.188;2023-08-31T00:30:35;3.60;;;1.77;;
828;SDS011;396;52.558;13.188;2023-08-31T00:33:04;2.80;;;1.17;;
828;SDS011;396;52.558;13.188;2023-08-31T00:35:32;3.57;;;1.67;;
828;SDS011;396;52.558;13.188;2023-08-31T00:37:59;2.87;;;1.17;;
828;SDS011;396;52.558;13.188;2023-08-31T00:40:29;2.53;;;1.13;;
828;SDS011;396;52.558;13.188;2023-08-31T00:42:58;3.20;;;1.20;;
828;SDS011;396;52.558;13.188;2023-08-31T00:45:25;4.10;;;1.33;;
828;SDS011;396;52.558;13.188;2023-08-31T00:47:53;2.73;;;0.80;;
828;SDS011;396;52.558;13.188;2023-08-31T00:50:22;3.50;;;1.50;;
828;SDS011;396;52.558;13.188;2023-08-31T00:52:48;3.27;;;1.73;;
828;SDS011;396;52.558;13.188;2023-08-31T00:55:15;4.37;;;1.80;;
828;SDS011;396;52.558;13.188;2023-08-31T00:57:43;3.57;;;1.57;;
828;SDS011;396;52.558;13.188;2023-08-31T01:00:10;3.67;;;1.87;;
828;SDS011;396;52.558;13.188;2023-08-31T01:02:40;3.50;;;1.57;;
828;SDS011;396;52.558;13.188;2023-08-31T01:05:18;4.30;;;2.00;;
828;SDS011;396;52.558;13.188;2023-08-31T01:07:56;3.10;;;1.40;;
828;SDS011;396;52.558;13.188;2023-08-31T01:10:29;3.27;;;1.70;;
828;SDS011;396;52.558;13.188;2023-08-31T01:13:03;3.90;;;1.50;;
828;SDS011;396;52.558;13.188;2023-08-31T01:15:39;4.67;;;2.20;;
828;SDS011;396;52.558;13.188;2023-08-31T01:18:09;3.30;;;1.70;;
828;SDS011;396;52.558;13.188;2023-08-31T01:20:40;4.27;;;2.10;;
828;SDS011;396;52.558;13.188;2023-08-31T01:23:13;2.60;;;1.20;;
828;SDS011;396;52.558;13.188;2023-08-31T01:25:45;3.70;;;1.37;;
828;SDS011;396;52.558;13.188;2023-08-31T01:28:13;3.43;;;1.47;;
828;SDS011;396;52.558;13.188;2023-08-31T01:30:40;2.80;;;1.10;;
828;SDS011;396;52.558;13.188;2023-08-31T01:33:07;2.50;;;1.07;;
828;SDS011;396;52.558;13.188;2023-08-31T01:35:37;2.97;;;0.80;;
828;SDS011;396;52.558;13.188;2023-08-31T01:38:08;2.73;;;0.90;;
828;SDS011;396;52.558;13.188;2023-08-31T01:40:40;2.47;;;0.90;;
828;SDS011;396;52.558;13.188;2023-08-31T01:43:12;3.60;;;1.13;;
828;SDS011;396;52.558;13.188;2023-08-31T01:45:39;2.97;;;0.90;;
828;SDS011;396;52.558;13.188;2023-08-31T01:48:07;2.60;;;0.80;;
828;SDS011;396;52.558;13.188;2023-08-31T01:50:34;2.67;;;0.80;;
828;SDS011;396;52.558;13.188;2023-08-31T01:53:01;2.23;;;0.67;;
828;SDS011;396;52.558;13.188;2023-08-31T01:55:28;2.40;;;0.80;;
828;SDS011;396;52.558;13.188;2023-08-31T01:57:54;2.20;;;0.60;;
828;SDS011;396;52.558;13.188;2023-08-31T02:00:22;2.50;;;0.90;;
828;SDS011;396;52.558;13.188;2023-08-31T02:02:49;2.40;;;0.80;;
828;SDS011;396;52.558;13.188;2023-08-31T02:05:15;2.20;;;0.67;;
828;SDS011;396;52.558;13.188;2023-08-31T02:07:42;2.40;;;0.80;;
828;SDS011;396;52.558;13.188;2023-08-31T02:10:09;2.60;;;1.07;;
828;SDS011;396;52.558;13.188;2023-08-31T02:12:36;2.50;;;0.57;;
828;SDS011;396;52.558;13.188;2023-08-31T02:15:03;2.60;;;1.20;;
828;SDS011;396;52.558;13.188;2023-08-31T02:17:32;2.40;;;0.93;;
828;SDS011;396;52.558;13.188;2023-08-31T02:19:59;2.80;;;0.90;;
828;SDS011;396;52.558;13.188;2023-08-31T02:24:56;2.30;;;0.50;;
828;SDS011;396;52.558;13.188;2023-08-31T02:27:22;2.50;;;0.80;;
828;SDS011;396;52.558;13.188;2023-08-31T02:29:49;2.20;;;0.70;;
828;SDS011;396;52.558;13.188;2023-08-31T02:32:16;3.80;;;1.03;;
828;SDS011;396;52.558;13.188;2023-08-31T02:34:44;2.27;;;0.60;;
828;SDS011;396;52.558;13.188;2023-08-31T02:37:10;2.20;;;0.60;;
828;SDS011;396;52.558;13.188;2023-08-31T02:39:37;2.40;;;0.70;;
828;SDS011;396;52.558;13.188;2023-08-31T02:42:05;2.17;;;0.63;;
828;SDS011;396;52.558;13.188;2023-08-31T02:44:33;2.60;;;0.80;;
828;SDS011;396;52.558;13.188;2023-08-31T02:46:59;2.20;;;0.57;;
828;SDS011;396;52.558;13.188;2023-08-31T02:49:26;2.70;;;0.80;;
828;SDS011;396;52.558;13.188;2023-08-31T02:51:54;2.47;;;0.70;;
828;SDS011;396;52.558;13.188;2023-08-31T02:54:20;4.20;;;0.60;;
828;SDS011;396;52.558;13.188;2023-08-31T02:56:47;2.57;;;0.97;;
828;SDS011;396;52.558;13.188;2023-08-31T02:59:14;2.10;;;0.50;;
828;SDS011;396;52.558;13.188;2023-08-31T03:01:42;2.10;;;0.57;;
828;SDS011;396;52.558;13.188;2023-08-31T03:04:11;2.80;;;1.00;;
828;SDS011;396;52.558;13.188;2023-08-31T03:06:38;3.33;;;1.40;;
828;SDS011;396;52.558;13.188;2023-08-31T03:09:06;2.30;;;0.73;;
828;SDS011;396;52.558;13.188;2023-08-31T03:11:33;3.27;;;0.87;;
828;SDS011;396;52.558;13.188;2023-08-31T03:13:59;2.40;;;0.83;;
828;SDS011;396;52.558;13.188;2023-08-31T03:16:26;2.97;;;0.93;;
828;SDS011;396;52.558;13.188;2023-08-31T03:18:52;2.80;;;0.90;;
828;SDS011;396;52.558;13.188;2023-08-31T03:21:19;7.30;;;0.90;;
828;SDS011;396;52.558;13.188;2023-08-31T03:23:46;2.40;;;0.60;;
828;SDS011;396;52.558;13.188;2023-08-31T03:26:14;2.20;;;0.67;;
828;SDS011;396;52.558;13.188;2023-08-31T03:28:40;2.40;;;0.77;;
828;SDS011;396;52.558;13.188;2023-08-31T03:31:07;2.80;;;0.90;;
828;SDS011;396;52.558;13.188;2023-08-31T03:33:33;2.83;;;0.70;;
828;SDS011;396;52.558;13.188;2023-08-31T03:36:00;2.20;;;0.60;;
828;SDS011;396;52.558;13.188;2023-08-31T03:38:29;3.80;;;1.30;;
828;SDS011;396;52.558;13.188;2023-08-31T03:40:56;2.30;;;0.70;;
828;SDS011;396;52.558;13.188;2023-08-31T03:43:25;2.10;;;0.57;;
828;SDS011;396;52.558;13.188;2023-08-31T03:45:53;2.20;;;0.60;;
828;SDS011;396;52.558;13.188;2023-08-31T03:48:21;2.33;;;0.70;;
828;SDS011;396;52.558;13.188;2023-08-31T03:50:48;2.77;;;0.90;;
828;SDS011;396;52.558;13.188;2023-08-31T03:53:15;3.87;;;1.30;;
828;SDS011;396;52.558;13.188;2023-08-31T03:55:42;2.23;;;0.73;;
828;SDS011;396;52.558;13.188;2023-08-31T03:58:09;2.73;;;0.63;;
828;SDS011;396;52.558;13.188;2023-08-31T04:00:38;2.47;;;0.80;;
828;SDS011;396;52.558;13.188;2023-08-31T04:03:04;2.40;;;0.80;;
828;SDS011;396;52.558;13.188;2023-08-31T04:05:32;2.33;;;0.67;;
828;SDS011;396;52.558;13.188;2023-08-31T04:07:59;2.50;;;0.90;;
828;SDS011;396;52.558;13.188;2023-08-31T04:10:26;2.60;;;0.90;;
828;SDS011;396;52.558;13.188;2023-08-31T04:12:54;2.83;;;0.87;;
828;SDS011;396;52.558;13.188;2023-08-31T04:15:21;3.17;;;1.10;;
828;SDS011;396;52.558;13.188;2023-08-31T04:17:49;2.50;;;0.87;;
828;SDS011;396;52.558;13.188;2023-08-31T04:20:16;2.37;;;0.80;;
828;SDS011;396;52.558;13.188;2023-08-31T04:22:42;2.47;;;0.83;;
828;SDS011;396;52.558;13.188;2023-08-31T04:25:09;2.30;;;0.70;;
828;SDS011;396;52.558;13.188;2023-08-31T04:27:36;3.03;;;1.10;;
828;SDS011;396;52.558;13.188;2023-08-31T04:30:04;2.50;;;0.70;;
828;SDS011;396;52.558;13.188;2023-08-31T04:32:32;2.80;;;0.80;;
828;SDS011;396;52.558;13.188;2023-08-31T04:35:01;3.40;;;1.40;;
828;SDS011;396;52.558;13.188;2023-08-31T04:37:29;6.27;;;1.40;;
828;SDS011;396;52.558;13.188;2023-08-31T04:39:55;2.97;;;1.10;;
828;SDS011;396;52.558;13.188;2023-08-31T04:42:23;4.33;;;1.33;;
828;SDS011;396;52.558;13.188;2023-08-31T04:44:49;2.97;;;1.23;;
828;SDS011;396;52.558;13.188;2023-08-31T04:47:16;3.20;;;1.13;;
828;SDS011;396;52.558;13.188;2023-08-31T04:49:43;3.00;;;1.43;;
828;SDS011;396;52.558;13.188;2023-08-31T04:52:11;2.67;;;1.00;;
828;SDS011;396;52.558;13.188;2023-08-31T04:54:37;3.40;;;1.10;;
828;SDS011;396;52.558;13.188;2023-08-31T04:57:04;3.73;;;2.00;;
828;SDS011;396;52.558;13.188;2023-08-31T04:59:32;3.03;;;0.90;;
828;SDS011;396;52.558;13.188;2023-08-31T05:01:59;2.57;;;0.87;;
828;SDS011;396;52.558;13.188;2023-08-31T05:04:25;2.47;;;0.77;;
828;SDS011;396;52.558;13.188;2023-08-31T05:06:53;3.27;;;1.23;;
828;SDS011;396;52.558;13.188;2023-08-31T05:09:21;3.90;;;0.90;;
828;SDS011;396;52.558;13.188;2023-08-31T05:11:50;2.27;;;0.73;;
828;SDS011;396;52.558;13.188;2023-08-31T05:14:16;4.27;;;1.23;;
828;SDS011;396;52.558;13.188;2023-08-31T05:16:43;3.40;;;1.43;;
828;SDS011;396;52.558;13.188;2023-08-31T05:19:09;3.60;;;1.70;;
828;SDS011;396;52.558;13.188;2023-08-31T05:21:36;2.60;;;1.00;;
828;SDS011;396;52.558;13.188;2023-08-31T05:24:03;3.30;;;1.37;;
828;SDS011;396;52.558;13.188;2023-08-31T05:26:32;3.70;;;1.50;;
828;SDS011;396;52.558;13.188;2023-08-31T05:28:59;2.77;;;0.97;;
828;SDS011;396;52.558;13.188;2023-08-31T05:31:25;4.23;;;1.40;;
828;SDS011;396;52.558;13.188;2023-08-31T05:33:52;3.60;;;1.37;;
828;SDS011;396;52.558;13.188;2023-08-31T05:36:19;2.57;;;0.97;;
828;SDS011;396;52.558;13.188;2023-08-31T05:38:45;2.20;;;0.67;;
828;SDS011;396;52.558;13.188;2023-08-31T05:41:12;3.87;;;1.57;;
828;SDS011;396;52.558;13.188;2023-08-31T05:43:40;2.40;;;0.93;;
828;SDS011;396;52.558;13.188;2023-08-31T05:46:07;3.13;;;1.17;;
828;SDS011;396;52.558;13.188;2023-08-31T05:48:34;3.50;;;1.23;;
828;SDS011;396;52.558;13.188;2023-08-31T05:51:01;2.70;;;1.00;;
828;SDS011;396;52.558;13.188;2023-08-31T05:53:28;3.00;;;1.37;;
828;SDS011;396;52.558;13.188;2023-08-31T05:55:55;2.70;;;1.03;;
828;SDS011;396;52.558;13.188;2023-08-31T05:58:28;4.37;;;1.80;;
828;SDS011;396;52.558;13.188;2023-08-31T06:00:57;3.87;;;1.30;;
828;SDS011;396;52.558;13.188;2023-08-31T06:03:24;3.80;;;1.33;;
828;SDS011;396;52.558;13.188;2023-08-31T06:05:51;5.83;;;1.77;;
828;SDS011;396;52.558;13.188;2023-08-31T06:08:18;4.93;;;1.43;;
828;SDS011;396;52.558;13.188;2023-08-31T06:10:44;4.00;;;1.20;;
828;SDS011;396;52.558;13.188;2023-08-31T06:13:11;2.57;;;0.90;;
828;SDS011;396;52.558;13.188;2023-08-31T06:15:37;3.67;;;1.40;;
828;SDS011;396;52.558;13.188;2023-08-31T06:18:06;3.67;;;1.30;;
828;SDS011;396;52.558;13.188;2023-08-31T06:20:33;3.20;;;1.60;;
828;SDS011;396;52.558;13.188;2023-08-31T06:22:59;3.30;;;1.40;;
828;SDS011;396;52.558;13.188;2023-08-31T06:25:26;4.20;;;1.70;;
828;SDS011;396;52.558;13.188;2023-08-31T06:27:53;4.27;;;1.83;;
828;SDS011;396;52.558;13.188;2023-08-31T06:30:19;3.43;;;1.50;;
828;SDS011;396;52.558;13.188;2023-08-31T06:32:46;3.37;;;1.30;;
828;SDS011;396;52.558;13.188;2023-08-31T06:35:16;3.87;;;1.70;;
828;SDS011;396;52.558;13.188;2023-08-31T06:37:44;3.90;;;1.90;;
828;SDS011;396;52.558;13.188;2023-08-31T06:40:12;3.63;;;1.67;;
828;SDS011;396;52.558;13.188;2023-08-31T06:42:39;3.30;;;1.57;;
828;SDS011;396;52.558;13.188;2023-08-31T06:45:06;4.93;;;1.80;;
828;SDS011;396;52.558;13.188;2023-08-31T06:47:33;6.90;;;2.60;;
828;SDS011;396;52.558;13.188;2023-08-31T06:50:00;2.73;;;1.13;;
828;SDS011;396;52.558;13.188;2023-08-31T06:52:29;3.07;;;1.60;;
828;SDS011;396;52.558;13.188;2023-08-31T06:54:56;3.67;;;1.60;;
828;SDS011;396;52.558;13.188;2023-08-31T06:57:23;3.87;;;1.80;;
828;SDS011;396;52.558;13.188;2023-08-31T06:59:50;4.47;;;1.73;;
828;SDS011;396;52.558;13.188;2023-08-31T07:02:16;4.90;;;2.20;;
828;SDS011;396;52.558;13.188;2023-08-31T07:04:44;3.00;;;0.97;;
828;SDS011;396;52.558;13.188;2023-08-31T07:07:11;3.37;;;1.53;;
828;SDS011;396;52.558;13.188;2023-08-31T07:09:40;3.37;;;1.50;;
828;SDS011;396;52.558;13.188;2023-08-31T07:12:08;3.60;;;1.73;;
828;SDS011;396;52.558;13.188;2023-08-31T07:14:34;4.70;;;2.70;;
828;SDS011;396;52.558;13.188;2023-08-31T07:17:01;4.77;;;2.20;;
828;SDS011;396;52.558;13.188;2023-08-31T07:19:28;3.80;;;1.63;;
828;SDS011;396;52.558;13.188;2023-08-31T07:21:54;4.10;;;1.67;;
828;SDS011;396;52.558;13.188;2023-08-31T07:24:22;3.40;;;1.43;;
828;SDS011;396;52.558;13.188;2023-08-31T07:26:50;2.97;;;1.17;;
828;SDS011;396;52.558;13.188;2023-08-31T07:29:17;3.13;;;1.53;;
828;SDS011;396;52.558;13.188;2023-08-31T07:31:43;2.93;;;1.23;;
828;SDS011;396;52.558;13.188;2023-08-31T07:34:10;3.03;;;1.33;;
828;SDS011;396;52.558;13.188;2023-08-31T07:36:37;3.03;;;1.50;;
828;SDS011;396;52.558;13.188;2023-08-31T07:39:02;3.40;;;1.37;;
828;SDS011;396;52.558;13.188;2023-08-31T07:41:29;3.07;;;1.33;;
828;SDS011;396;52.558;13.188;2023-08-31T07:43:57;3.67;;;1.40;;
828;SDS011;396;52.558;13.188;2023-08-31T07:46:24;3.30;;;1.60;;
828;SDS011;396;52.558;13.188;2023-08-31T07:48:51;3.00;;;1.13;;
828;SDS011;396;52.558;13.188;2023-08-31T07:51:17;3.13;;;1.40;;
828;SDS011;396;52.558;13.188;2023-08-31T07:53:48;3.17;;;1.30;;
828;SDS011;396;52.558;13.188;2023-08-31T07:56:14;3.80;;;1.37;;
828;SDS011;396;52.558;13.188;2023-08-31T07:58:41;3.47;;;1.60;;
828;SDS011;396;52.558;13.188;2023-08-31T08:01:09;3.13;;;1.57;;
828;SDS011;396;52.558;13.188;2023-08-31T08:03:36;3.73;;;1.57;;
828;SDS011;396;52.558;13.188;2023-08-31T08:06:02;2.40;;;0.90;;
828;SDS011;396;52.558;13.188;2023-08-31T08:08:29;3.70;;;1.70;;
828;SDS011;396;52.558;13.188;2023-08-31T08:10:56;3.63;;;1.40;;
828;SDS011;396;52.558;13.188;2023-08-31T08:13:22;3.17;;;1.70;;
828;SDS011;396;52.558;13.188;2023-08-31T08:15:49;5.13;;;1.20;;
828;SDS011;396;52.558;13.188;2023-08-31T08:18:17;2.40;;;0.90;;
828;SDS011;396;52.558;13.188;2023-08-31T08:20:46;2.70;;;0.90;;
828;SDS011;396;52.558;13.188;2023-08-31T08:23:13;2.60;;;0.90;;
828;SDS011;396;52.558;13.188;2023-08-31T08:25:40;2.93;;;0.90;;
828;SDS011;396;52.558;13.188;2023-08-31T08:28:06;2.30;;;0.70;;
828;SDS011;396;52.558;13.188;2023-08-31T08:30:33;3.27;;;0.97;;
828;SDS011;396;52.558;13.188;2023-08-31T08:33:00;5.37;;;1.30;;
828;SDS011;396;52.558;13.188;2023-08-31T08:35:28;4.37;;;1.13;;
828;SDS011;396;52.558;13.188;2023-08-31T08:37:54;2.50;;;0.90;;
828;SDS011;396;52.558;13.188;2023-08-31T08:40:21;2.13;;;0.57;;
828;SDS011;396;52.558;13.188;2023-08-31T08:42:48;2.30;;;0.70;;
828;SDS011;396;52.558;13.188;2023-08-31T08:45:18;2.10;;;0.70;;
828;SDS011;396;52.558;13.188;2023-08-31T08:47:47;2.50;;;0.60;;
828;SDS011;396;52.558;13.188;2023-08-31T08:50:15;2.53;;;1.03;;
828;SDS011;396;52.558;13.188;2023-08-31T08:52:43;2.57;;;0.80;;
828;SDS011;396;52.558;13.188;2023-08-31T08:55:11;2.40;;;0.80;;
828;SDS011;396;52.558;13.188;2023-08-31T08:57:39;3.20;;;0.90;;
828;SDS011;396;52.558;13.188;2023-08-31T09:00:06;2.60;;;0.90;;
828;SDS011;396;52.558;13.188;2023-08-31T09:02:34;2.10;;;0.73;;
828;SDS011;396;52.558;13.188;2023-08-31T09:05:00;2.10;;;0.77;;
828;SDS011;396;52.558;13.188;2023-08-31T09:07:29;2.40;;;0.90;;
828;SDS011;396;52.558;13.188;2023-08-31T09:09:57;2.50;;;0.80;;
828;SDS011;396;52.558;13.188;2023-08-31T09:12:25;2.40;;;0.73;;
828;SDS011;396;52.558;13.188;2023-08-31T09:14:58;2.50;;;0.63;;
828;SDS011;396;52.558;13.188;2023-08-31T09:17:26;3.70;;;0.67;;
828;SDS011;396;52.558;13.188;2023-08-31T09:20:04;2.23;;;0.70;;
828;SDS011;396;52.558;13.188;2023-08-31T09:22:32;2.37;;;0.97;;
828;SDS011;396;52.558;13.188;2023-08-31T09:25:00;2.10;;;0.60;;
828;SDS011;396;52.558;13.188;2023-08-31T09:27:28;3.03;;;0.67;;
828;SDS011;396;52.558;13.188;2023-08-31T09:29:56;2.50;;;0.87;;
828;SDS011;396;52.558;13.188;2023-08-31T09:32:22;2.33;;;0.70;;
828;SDS011;396;52.558;13.188;2023-08-31T09:34:49;2.27;;;0.60;;
828;SDS011;396;52.558;13.188;2023-08-31T09:37:16;2.37;;;0.80;;
828;SDS011;396;52.558;13.188;2023-08-31T09:39:43;2.20;;;0.70;;
828;SDS011;396;52.558;13.188;2023-08-31T09:42:11;2.13;;;0.70;;
828;SDS011;396;52.558;13.188;2023-08-31T09:44:42;2.00;;;0.50;;
828;SDS011;396;52.558;13.188;2023-08-31T09:47:09;2.50;;;0.80;;
828;SDS011;396;52.558;13.188;2023-08-31T09:49:37;2.00;;;0.60;;
828;SDS011;396;52.558;13.188;2023-08-31T09:52:07;2.10;;;0.60;;
828;SDS011;396;52.558;13.188;2023-08-31T09:54:35;2.30;;;0.60;;
828;SDS011;396;52.558;13.188;2023-08-31T09:57:03;2.90;;;0.80;;
828;SDS011;396;52.558;13.188;2023-08-31T09:59:32;1.90;;;0.60;;
828;SDS011;396;52.558;13.188;2023-08-31T10:02:00;3.00;;;0.80;;
828;SDS011;396;52.558;13.188;2023-08-31T10:04:29;2.20;;;0.73;;
828;SDS011;396;52.558;13.188;2023-08-31T10:06:57;2.00;;;0.50;;
828;SDS011;396;52.558;13.188;2023-08-31T10:09:24;2.97;;;0.57;;
828;SDS011;396;52.558;13.188;2023-08-31T10:11:51;2.03;;;0.50;;
828;SDS011;396;52.558;13.188;2023-08-31T10:14:18;2.07;;;0.47;;
828;SDS011;396;52.558;13.188;2023-08-31T10:16:48;1.97;;;0.50;;
828;SDS011;396;52.558;13.188;2023-08-31T10:19:17;2.00;;;0.53;;
828;SDS011;396;52.558;13.188;2023-08-31T10:21:44;2.10;;;0.60;;
828;SDS011;396;52.558;13.188;2023-08-31T10:24:10;2.00;;;0.50;;
828;SDS011;396;52.558;13.188;2023-08-31T10:26:37;2.03;;;0.57;;
828;SDS011;396;52.558;13.188;2023-08-31T10:29:04;2.17;;;0.60;;
828;SDS011;396;52.558;13.188;2023-08-31T10:31:31;2.00;;;0.50;;
828;SDS011;396;52.558;13.188;2023-08-31T10:34:01;2.20;;;0.70;;
828;SDS011;396;52.558;13.188;2023-08-31T10:36:36;3.07;;;0.80;;
828;SDS011;396;52.558;13.188;2023-08-31T10:39:10;2.20;;;0.63;;
828;SDS011;396;52.558;13.188;2023-08-31T10:41:38;2.37;;;0.87;;
828;SDS011;396;52.558;13.188;2023-08-31T10:44:18;2.30;;;0.70;;
828;SDS011;396;52.558;13.188;2023-08-31T10:46:45;2.30;;;0.80;;
828;SDS011;396;52.558;13.188;2023-08-31T10:49:14;2.17;;;0.70;;
828;SDS011;396;52.558;13.188;2023-08-31T10:51:43;2.10;;;0.50;;
828;SDS011;396;52.558;13.188;2023-08-31T10:54:11;2.27;;;0.70;;
828;SDS011;396;52.558;13.188;2023-08-31T10:59:46;2.20;;;0.60;;
828;SDS011;396;52.558;13.188;2023-08-31T11:05:08;2.17;;;0.63;;
828;SDS011;396;52.558;13.188;2023-08-31T11:07:36;2.00;;;0.50;;
828;SDS011;396;52.558;13.188;2023-08-31T11:10:10;1.90;;;0.50;;
828;SDS011;396;52.558;13.188;2023-08-31T11:12:38;2.27;;;0.70;;
828;SDS011;396;52.558;13.188;2023-08-31T11:15:05;2.30;;;0.50;;
828;SDS011;396;52.558;13.188;2023-08-31T11:17:33;3.43;;;0.70;;
828;SDS011;396;52.558;13.188;2023-08-31T11:20:00;2.37;;;0.70;;
828;SDS011;396;52.558;13.188;2023-08-31T11:22:31;2.03;;;0.50;;
828;SDS011;396;52.558;13.188;2023-08-31T11:24:59;2.30;;;0.70;;
828;SDS011;396;52.558;13.188;2023-08-31T11:27:25;2.40;;;0.80;;
828;SDS011;396;52.558;13.188;2023-08-31T11:29:52;2.10;;;0.70;;
828;SDS011;396;52.558;13.188;2023-08-31T11:32:19;2.30;;;0.80;;
828;SDS011;396;52.558;13.188;2023-08-31T11:34:48;2.30;;;0.70;;
828;SDS011;396;52.558;13.188;2023-08-31T11:37:16;3.90;;;0.70;;
828;SDS011;396;52.558;13.188;2023-08-31T11:39:49;2.47;;;0.77;;
828;SDS011;396;52.558;13.188;2023-08-31T11:42:16;2.10;;;0.63;;
828;SDS011;396;52.558;13.188;2023-08-31T11:44:44;3.27;;;1.30;;
828;SDS011;396;52.558;13.188;2023-08-31T11:47:12;2.90;;;1.10;;
828;SDS011;396;52.558;13.188;2023-08-31T11:49:40;2.70;;;0.83;;
828;SDS011;396;52.558;13.188;2023-08-31T11:52:08;2.50;;;0.80;;
828;SDS011;396;52.558;13.188;2023-08-31T11:54:36;2.10;;;0.60;;
828;SDS011;396;52.558;13.188;2023-08-31T11:57:07;2.20;;;0.70;;
828;SDS011;396;52.558;13.188;2023-08-31T11:59:35;2.93;;;0.90;;
828;SDS011;396;52.558;13.188;2023-08-31T12:02:04;2.30;;;0.80;;
828;SDS011;396;52.558;13.188;2023-08-31T12:04:33;2.60;;;0.70;;
828;SDS011;396;52.558;13.188;2023-08-31T12:07:07;2.60;;;1.00;;
828;SDS011;396;52.558;13.188;2023-08-31T12:09:34;1.90;;;0.50;;
828;SDS011;396;52.558;13.188;2023-08-31T12:12:01;2.30;;;0.90;;
828;SDS011;396;52.558;13.188;2023-08-31T12:14:31;2.60;;;0.97;;
828;SDS011;396;52.558;13.188;2023-08-31T12:17:01;2.00;;;0.57;;
828;SDS011;396;52.558;13.188;2023-08-31T12:19:29;2.53;;;0.80;;
828;SDS011;396;52.558;13.188;2023-08-31T12:21:56;1.90;;;0.50;;
828;SDS011;396;52.558;13.188;2023-08-31T12:24:23;2.50;;;0.70;;
828;SDS011;396;52.558;13.188;2023-08-31T12:26:50;2.63;;;0.77;;
828;SDS011;396;52.558;13.188;2023-08-31T12:29:18;2.20;;;0.70;;
828;SDS011;396;52.558;13.188;2023-08-31T12:31:46;2.10;;;0.70;;
828;SDS011;396;52.558;13.188;2023-08-31T12:34:13;1.90;;;0.57;;
828;SDS011;396;52.558;13.188;2023-08-31T12:36:40;2.17;;;0.80;;
828;SDS011;396;52.558;13.188;2023-08-31T12:39:06;2.10;;;0.63;;
828;SDS011;396;52.558;13.188;2023-08-31T12:41:34;2.40;;;0.57;;
828;SDS011;396;52.558;13.188;2023-08-31T12:44:02;2.03;;;0.67;;
828;SDS011;396;52.558;13.188;2023-08-31T12:46:29;4.33;;;1.13;;
828;SDS011;396;52.558;13.188;2023-08-31T12:48:59;1.90;;;0.50;;
828;SDS011;396;52.558;13.188;2023-08-31T12:51:26;2.27;;;0.67;;
828;SDS011;396;52.558;13.188;2023-08-31T12:53:52;2.60;;;0.83;;
828;SDS011;396;52.558;13.188;2023-08-31T12:56:19;2.00;;;0.70;;
828;SDS011;396;52.558;13.188;2023-08-31T12:58:48;1.90;;;0.43;;
828;SDS011;396;52.558;13.188;2023-08-31T13:01:15;2.00;;;0.60;;
828;SDS011;396;52.558;13.188;2023-08-31T13:03:41;2.20;;;0.60;;
828;SDS011;396;52.558;13.188;2023-08-31T13:06:09;3.30;;;0.80;;
828;SDS011;396;52.558;13.188;2023-08-31T13:08:36;1.80;;;0.40;;
828;SDS011;396;52.558;13.188;2023-08-31T13:11:03;2.03;;;0.57;;
828;SDS011;396;52.558;13.188;2023-08-31T13:13:30;2.20;;;0.70;;
828;SDS011;396;52.558;13.188;2023-08-31T13:15:57;2.50;;;0.60;;
828;SDS011;396;52.558;13.188;2023-08-31T13:18:24;4.00;;;0.87;;
828;SDS011;396;52.558;13.188;2023-08-31T13:20:50;2.10;;;0.70;;
828;SDS011;396;52.558;13.188;2023-08-31T13:23:18;2.30;;;0.93;;
828;SDS011;396;52.558;13.188;2023-08-31T13:25:45;2.03;;;0.57;;
828;SDS011;396;52.558;13.188;2023-08-31T13:28:12;2.20;;;0.67;;
828;SDS011;396;52.558;13.188;2023-08-31T13:30:39;2.00;;;0.50;;
828;SDS011;396;52.558;13.188;2023-08-31T13:33:07;1.80;;;0.43;;
828;SDS011;396;52.558;13.188;2023-08-31T13:35:34;2.30;;;0.50;;
828;SDS011;396;52.558;13.188;2023-08-31T13:38:01;2.03;;;0.60;;
828;SDS011;396;52.558;13.188;2023-08-31T13:40:29;2.70;;;0.70;;
828;SDS011;396;52.558;13.188;2023-08-31T13:42:56;2.40;;;0.50;;
828;SDS011;396;52.558;13.188;2023-08-31T13:45:28;2.83;;;0.80;;
828;SDS011;396;52.558;13.188;2023-08-31T13:47:55;2.10;;;0.70;;
828;SDS011;396;52.558;13.188;2023-08-31T13:50:22;2.23;;;0.77;;
828;SDS011;396;52.558;13.188;2023-08-31T13:52:48;2.40;;;0.80;;
828;SDS011;396;52.558;13.188;2023-08-31T13:55:15;1.90;;;0.50;;
828;SDS011;396;52.558;13.188;2023-08-31T13:57:43;2.37;;;0.77;;
828;SDS011;396;52.558;13.188;2023-08-31T14:00:10;2.07;;;0.60;;
828;SDS011;396;52.558;13.188;2023-08-31T14:02:38;1.80;;;0.50;;
828;SDS011;396;52.558;13.188;2023-08-31T14:05:05;2.00;;;0.50;;
828;SDS011;396;52.558;13.188;2023-08-31T14:07:34;2.00;;;0.53;;
828;SDS011;396;52.558;13.188;2023-08-31T14:10:00;2.57;;;0.80;;
828;SDS011;396;52.558;13.188;2023-08-31T14:12:28;2.27;;;0.60;;
828;SDS011;396;52.558;13.188;2023-08-31T14:14:56;2.37;;;0.60;;
828;SDS011;396;52.558;13.188;2023-08-31T14:17:24;1.80;;;0.40;;
828;SDS011;396;52.558;13.188;2023-08-31T14:19:50;2.10;;;0.60;;
828;SDS011;396;52.558;13.188;2023-08-31T14:22:17;2.00;;;0.40;;
828;SDS011;396;52.558;13.188;2023-08-31T14:24:44;2.03;;;0.67;;
828;SDS011;396;52.558;13.188;2023-08-31T14:27:11;1.90;;;0.50;;
828;SDS011;396;52.558;13.188;2023-08-31T14:29:37;2.10;;;0.40;;
828;SDS011;396;52.558;13.188;2023-08-31T14:32:05;2.00;;;0.47;;
828;SDS011;396;52.558;13.188;2023-08-31T14:34:32;1.90;;;0.40;;
828;SDS011;396;52.558;13.188;2023-08-31T14:36:59;2.30;;;0.60;;
828;SDS011;396;52.558;13.188;2023-08-31T14:39:26;2.20;;;0.60;;
828;SDS011;396;52.558;13.188;2023-08-31T14:41:54;1.90;;;0.50;;
828;SDS011;396;52.558;13.188;2023-08-31T14:44:22;2.00;;;0.40;;
828;SDS011;396;52.558;13.188;2023-08-31T14:46:49;2.00;;;0.60;;
828;SDS011;396;52.558;13.188;2023-08-31T14:49:17;2.20;;;0.80;;
828;SDS011;396;52.558;13.188;2023-08-31T14:51:43;2.20;;;0.53;;
828;SDS011;396;52.558;13.188;2023-08-31T14:54:10;2.33;;;0.50;;
828;SDS011;396;52.558;13.188;2023-08-31T14:56:37;2.03;;;0.50;;
828;SDS011;396;52.558;13.188;2023-08-31T14:59:03;2.10;;;0.60;;
828;SDS011;396;52.558;13.188;2023-08-31T15:01:30;2.30;;;0.70;;
828;SDS011;396;52.558;13.188;2023-08-31T15:03:57;2.00;;;0.50;;
828;SDS011;396;52.558;13.188;2023-08-31T15:06:25;3.13;;;0.63;;
828;SDS011;396;52.558;13.188;2023-08-31T15:08:51;2.00;;;0.50;;
828;SDS011;396;52.558;13.188;2023-08-31T15:11:18;2.30;;;0.60;;
828;SDS011;396;52.558;13.188;2023-08-31T15:13:45;1.90;;;0.40;;
828;SDS011;396;52.558;13.188;2023-08-31T15:16:11;2.10;;;0.57;;
828;SDS011;396;52.558;13.188;2023-08-31T15:18:38;2.10;;;0.50;;
828;SDS011;396;52.558;13.188;2023-08-31T15:21:05;2.10;;;0.50;;
828;SDS011;396;52.558;13.188;2023-08-31T15:23:33;2.00;;;0.40;;
828;SDS011;396;52.558;13.188;2023-08-31T15:25:59;1.90;;;0.40;;
828;SDS011;396;52.558;13.188;2023-08-31T15:28:27;2.10;;;0.43;;
828;SDS011;396;52.558;13.188;2023-08-31T15:30:54;2.07;;;0.60;;
828;SDS011;396;52.558;13.188;2023-08-31T15:33:21;2.23;;;0.60;;
828;SDS011;396;52.558;13.188;2023-08-31T15:35:47;2.10;;;0.60;;
828;SDS011;396;52.558;13.188;2023-08-31T15:38:14;2.07;;;0.60;;
828;SDS011;396;52.558;13.188;2023-08-31T15:40:46;2.27;;;0.50;;